Time;durP1;ratioP1;P1;durP2;ratioP2;P2;SDS_P1;SDS_P2;PMS_P1;PMS_P2;Temp;Humidity;BMP_temperature;BMP_pressure;BME280_temperature;BME280_humidity;BME280_pressure;Samples;Min_cycle;Max_cycle;Signal;HPM_P1;HPM_P2
2022/02/24 00:01:42;;;;;;;;;;;;;;;;;;4993393;28;20382;-66
2022/02/24 00:04:08;;;;;;;;;;;;;;;;;;4993668;28;20274;-67
2022/02/24 00:06:33;;;;;;;;;;;;;;;;;;4987785;28;20397;-68
2022/02/24 00:09:00;;;;;;;;;;;;;;;;;;4994798;28;20407;-67
2022/02/24 00:11:25;;;;;;;;;;;;;;;;;;4991148;28;20016;-65
2022/02/24 00:13:50;;;;;;;;;;;;;;;;;;4993175;28;20003;-65
2022/02/24 00:16:15;;;;;;;;;;;;;;;;;;4994177;28;19949;-66
2022/02/24 00:18:41;;;;;;;;;;;;;;;;;;4990113;28;19913;-67
2022/02/24 00:21:06;;;;;;;;;;;;;;;;;;4993338;28;20370;-67
2022/02/24 00:23:31;;;;;;;;;;;;;;;;;;4986536;28;19914;-67
2022/02/24 00:25:56;;;;;;;;;;;;;;;;;;4996381;28;19914;-66
2022/02/24 00:28:22;;;;;;;;;;;;;;;;;;4993790;28;19940;-66
2022/02/24 00:30:48;;;;;;;;;;;;;;;;;;4988227;28;20275;-66
2022/02/24 00:33:13;;;;;;;;;;;;;;;;;;4992349;28;19921;-67
2022/02/24 00:35:38;;;;;;;;;;;;;;;;;;4991877;28;19921;-66
2022/02/24 00:38:03;;;;;;;;;;;;;;;;;;4993015;28;20263;-65
2022/02/24 00:40:29;;;;;;;;;;;;;;;;;;4993851;28;20099;-66
2022/02/24 00:42:54;;;;;;;;;;;;;;;;;;4992827;28;20278;-66
2022/02/24 00:45:19;;;;;;;;;;;;;;;;;;4994553;28;19921;-66
2022/02/24 00:47:45;;;;;;;;;;;;;;;;;;4994833;28;20432;-67
2022/02/24 00:50:10;;;;;;;;;;;;;;;;;;4994413;28;19991;-68
2022/02/24 00:52:35;;;;;;;;;;;;;;;;;;4992685;28;20034;-66
2022/02/24 00:55:01;;;;;;;;;;;;;;;;;;4990147;28;19932;-66
2022/02/24 00:57:26;;;;;;;;;;;;;;;;;;4994818;28;19925;-66
2022/02/24 00:59:52;;;;;;;;;;;;;;;;;;4994863;28;19996;-67
2022/02/24 01:02:17;;;;;;;;;;;;;;;;;;4986255;28;19928;-66
2022/02/24 01:04:42;;;;;;;;;;;;;;;;;;4989783;28;19917;-66
2022/02/24 01:07:07;;;;;;;;;;;;;;;;;;4985678;28;20677;-66
2022/02/24 01:09:33;;;;;;;;;;;;;;;;;;4998929;28;19923;-66
2022/02/24 01:11:58;;;;;;;;;;;;;;;;;;4992066;28;20526;-67
2022/02/24 01:14:23;;;;;;;;;;;;;;;;;;4987090;28;19914;-66
2022/02/24 01:16:48;;;;;;;;;;;;;;;;;;4995573;28;19963;-67
2022/02/24 01:19:13;;;;;;;;;;;;;;;;;;4987166;28;19940;-67
2022/02/24 01:21:39;;;;;;;;;;;;;;;;;;4993379;28;19921;-67
2022/02/24 01:24:04;;;;;;;;;;;;;;;;;;4993384;28;19971;-67
2022/02/24 01:26:29;;;;;;;;;;;;;;;;;;4999065;28;19968;-66
2022/02/24 01:28:54;;;;;;;;;;;;;;;;;;4994086;28;19913;-67
2022/02/24 01:31:19;;;;;;;;;;;;;;;;;;4990777;28;19975;-68
2022/02/24 01:33:45;;;;;;;;;;;;;;;;;;4997989;28;19914;-67
2022/02/24 01:36:10;;;;;;;;;;;;;;;;;;4988819;28;19916;-68
2022/02/24 01:38:35;;;;;;;;;;;;;;;;;;4992560;28;20100;-66
2022/02/24 01:41:00;;;;;;;;;;;;;;;;;;4996051;28;20413;-67
2022/02/24 01:43:26;;;;;;;;;;;;;;;;;;4992532;28;19945;-67
2022/02/24 01:45:51;;;;;;;;;;;;;;;;;;4992819;28;19949;-68
2022/02/24 01:48:16;;;;;;;;;;;;;;;;;;4991772;28;19945;-67
2022/02/24 01:50:41;;;;;;;;;;;;;;;;;;4996161;28;20339;-65
2022/02/24 01:53:07;;;;;;;;;;;;;;;;;;4993923;28;19913;-65
2022/02/24 01:55:32;;;;;;;;;;;;;;;;;;4990366;28;19977;-66
2022/02/24 01:57:57;;;;;;;;;;;;;;;;;;4992743;28;19935;-66
2022/02/24 02:00:23;;;;;;;;;;;;;;;;;;4987704;28;19921;-66
2022/02/24 02:02:48;;;;;;;;;;;;;;;;;;4994296;28;19914;-66
2022/02/24 02:05:13;;;;;;;;;;;;;;;;;;4994568;28;20000;-65
2022/02/24 02:07:39;;;;;;;;;;;;;;;;;;4990438;28;20020;-67
2022/02/24 02:10:04;;;;;;;;;;;;;;;;;;4993234;28;20255;-66
2022/02/24 02:12:29;;;;;;;;;;;;;;;;;;4987188;28;20290;-66
2022/02/24 02:14:55;;;;;;;;;;;;;;;;;;4987218;28;20515;-65
2022/02/24 02:17:20;;;;;;;;;;;;;;;;;;4995365;28;20266;-66
2022/02/24 02:19:45;;;;;;;;;;;;;;;;;;4981449;28;20753;-65
2022/02/24 02:22:11;;;;;;;;;;;;;;;;;;4990365;28;19921;-66
2022/02/24 02:24:36;;;;;;;;;;;;;;;;;;4985778;28;19949;-65
2022/02/24 02:27:02;;;;;;;;;;;;;;;;;;4990038;28;19913;-65
2022/02/24 02:29:27;;;;;;;;;;;;;;;;;;4990485;28;19970;-66
2022/02/24 02:31:53;;;;;;;;;;;;;;;;;;4989422;28;19944;-67
2022/02/24 02:34:18;;;;;;;;;;;;;;;;;;4991682;28;20417;-67
2022/02/24 02:36:45;;;;;;;;;;;;;;;;;;4990541;28;19970;-66
2022/02/24 02:39:13;;;;;;;;;;;;;;;;;;4987855;28;19921;-66
2022/02/24 02:41:39;;;;;;;;;;;;;;;;;;4995352;28;19932;-66
2022/02/24 02:44:05;;;;;;;;;;;;;;;;;;4988508;28;20027;-66
2022/02/24 02:46:30;;;;;;;;;;;;;;;;;;4996302;28;20400;-67
2022/02/24 02:48:55;;;;;;;;;;;;;;;;;;4994476;28;19917;-66
2022/02/24 02:51:21;;;;;;;;;;;;;;;;;;4998091;28;19922;-66
2022/02/24 02:53:46;;;;;;;;;;;;;;;;;;4998127;28;19928;-67
2022/02/24 02:56:11;;;;;;;;;;;;;;;;;;4992154;28;19921;-66
2022/02/24 02:58:36;;;;;;;;;;;;;;;;;;4995734;28;19925;-67
2022/02/24 03:01:01;;;;;;;;;;;;;;;;;;4988585;28;19921;-66
2022/02/24 03:03:27;;;;;;;;;;;;;;;;;;5001388;28;20173;-66
2022/02/24 03:05:52;;;;;;;;;;;;;;;;;;4995120;28;19918;-65
2022/02/24 03:08:17;;;;;;;;;;;;;;;;;;4992444;28;19909;-67
2022/02/24 03:10:42;;;;;;;;;;;;;;;;;;4997351;28;19918;-66
2022/02/24 03:13:07;;;;;;;;;;;;;;;;;;4996060;28;19914;-66
2022/02/24 03:15:33;;;;;;;;;;;;;;;;;;4992280;28;20333;-66
2022/02/24 03:17:58;;;;;;;;;;;;;;;;;;4997673;28;19957;-65
2022/02/24 03:20:23;;;;;;;;;;;;;;;;;;4991059;28;20013;-66
2022/02/24 03:22:48;;;;;;;;;;;;;;;;;;4997337;28;19913;-66
2022/02/24 03:25:14;;;;;;;;;;;;;;;;;;4992053;28;19984;-66
2022/02/24 03:27:39;;;;;;;;;;;;;;;;;;4989712;28;20035;-66
2022/02/24 03:30:04;;;;;;;;;;;;;;;;;;4994930;28;19971;-66
2022/02/24 03:32:29;;;;;;;;;;;;;;;;;;4993963;28;19918;-65
2022/02/24 03:34:54;;;;;;;;;;;;;;;;;;4994842;28;19913;-66
2022/02/24 03:37:20;;;;;;;;;;;;;;;;;;4991071;28;19917;-66
2022/02/24 03:39:45;;;;;;;;;;;;;;;;;;4990483;28;20035;-66
2022/02/24 03:42:10;;;;;;;;;;;;;;;;;;4994950;28;19913;-66
2022/02/24 03:44:35;;;;;;;;;;;;;;;;;;4989921;28;19906;-66
2022/02/24 03:47:00;;;;;;;;;;;;;;;;;;4997733;28;19968;-65
2022/02/24 03:49:26;;;;;;;;;;;;;;;;;;4989669;28;19925;-66
2022/02/24 03:51:51;;;;;;;;;;;;;;;;;;4992103;28;19980;-66
2022/02/24 03:54:16;;;;;;;;;;;;;;;;;;4994252;28;19963;-67
2022/02/24 03:56:41;;;;;;;;;;;;;;;;;;4990295;28;19909;-66
2022/02/24 03:59:07;;;;;;;;;;;;;;;;;;4995452;28;19996;-67
2022/02/24 04:01:32;;;;;;;;;;;;;;;;;;4991919;28;19922;-67
2022/02/24 04:03:57;;;;;;;;;;;;;;;;;;4992127;28;19920;-67
2022/02/24 04:06:22;;;;;;;;;;;;;;;;;;4993393;28;19914;-67
2022/02/24 04:08:48;;;;;;;;;;;;;;;;;;4991735;28;20406;-67
2022/02/24 04:11:14;;;;;;;;;;;;;;;;;;4996553;28;19921;-67
2022/02/24 04:13:39;;;;;;;;;;;;;;;;;;4991465;28;19921;-67
2022/02/24 04:16:04;;;;;;;;;;;;;;;;;;4989113;28;19914;-67
2022/02/24 04:18:29;;;;;;;;;;;;;;;;;;4994789;28;20040;-67
2022/02/24 04:20:54;;;;;;;;;;;;;;;;;;4989785;28;19920;-67
2022/02/24 04:23:20;;;;;;;;;;;;;;;;;;4997272;28;20289;-67
2022/02/24 04:25:45;;;;;;;;;;;;;;;;;;4990718;28;20567;-67
2022/02/24 04:28:10;;;;;;;;;;;;;;;;;;4993218;28;21060;-67
2022/02/24 04:30:35;;;;;;;;;;;;;;;;;;4993913;28;20432;-67
2022/02/24 04:33:00;;;;;;;;;;;;;;;;;;4990115;28;20008;-67
2022/02/24 04:35:26;;;;;;;;;;;;;;;;;;5000635;28;19983;-66
2022/02/24 04:37:51;;;;;;;;;;;;;;;;;;4990539;28;19914;-68
2022/02/24 04:40:16;;;;;;;;;;;;;;;;;;4991683;28;19968;-67
2022/02/24 04:42:41;;;;;;;;;;;;;;;;;;4995551;28;19917;-67
2022/02/24 04:45:06;;;;;;;;;;;;;;;;;;4988056;28;19918;-67
2022/02/24 04:47:32;;;;;;;;;;;;;;;;;;4993663;28;19925;-66
2022/02/24 04:49:57;;;;;;;;;;;;;;;;;;4989325;28;19957;-66
2022/02/24 04:52:22;;;;;;;;;;;;;;;;;;4990511;28;20005;-67
2022/02/24 04:54:47;;;;;;;;;;;;;;;;;;4992186;28;19913;-67
2022/02/24 04:57:13;;;;;;;;;;;;;;;;;;4991688;28;19906;-66
2022/02/24 04:59:38;;;;;;;;;;;;;;;;;;4995642;28;20016;-67
2022/02/24 05:02:03;;;;;;;;;;;;;;;;;;4989730;28;20023;-67
2022/02/24 05:04:28;;;;;;;;;;;;;;;;;;4989169;28;19918;-67
2022/02/24 05:06:54;;;;;;;;;;;;;;;;;;4993432;28;19913;-67
2022/02/24 05:09:19;;;;;;;;;;;;;;;;;;4988004;28;19961;-67
2022/02/24 05:11:44;;;;;;;;;;;;;;;;;;4998749;28;19918;-67
2022/02/24 05:14:09;;;;;;;;;;;;;;;;;;4992428;28;19921;-67
2022/02/24 05:16:34;;;;;;;;;;;;;;;;;;4990232;28;20008;-67
2022/02/24 05:19:00;;;;;;;;;;;;;;;;;;4992986;28;19910;-67
2022/02/24 05:21:26;;;;;;;;;;;;;;;;;;4989266;28;19914;-67
2022/02/24 05:23:51;;;;;;;;;;;;;;;;;;4994772;28;19917;-65
2022/02/24 05:26:16;;;;;;;;;;;;;;;;;;4989524;28;19956;-66
2022/02/24 05:28:41;;;;;;;;;;;;;;;;;;4997794;28;20765;-66
2022/02/24 05:31:06;;;;;;;;;;;;;;;;;;4993403;28;19929;-66
2022/02/24 05:33:32;;;;;;;;;;;;;;;;;;4993068;28;19922;-66
2022/02/24 05:35:57;;;;;;;;;;;;;;;;;;4993259;28;20506;-66
2022/02/24 05:38:22;;;;;;;;;;;;;;;;;;4990779;28;19925;-66
2022/02/24 05:40:47;;;;;;;;;;;;;;;;;;4990814;28;19926;-66
2022/02/24 05:43:13;;;;;;;;;;;;;;;;;;4996508;28;19917;-66
2022/02/24 05:45:38;;;;;;;;;;;;;;;;;;4990683;28;19925;-66
2022/02/24 05:48:03;;;;;;;;;;;;;;;;;;4994487;28;20632;-66
2022/02/24 05:50:28;;;;;;;;;;;;;;;;;;4987249;28;19914;-66
2022/02/24 05:52:53;;;;;;;;;;;;;;;;;;4989400;28;19924;-65
2022/02/24 05:55:18;;;;;;;;;;;;;;;;;;4992530;28;20330;-66
2022/02/24 05:57:44;;;;;;;;;;;;;;;;;;4988151;28;19960;-66
2022/02/24 06:00:09;;;;;;;;;;;;;;;;;;4989575;28;20451;-66
2022/02/24 06:02:37;;;;;;;;;;;;;;;;;;4991211;28;20679;-65
2022/02/24 06:05:02;;;;;;;;;;;;;;;;;;4987153;28;19913;-65
2022/02/24 06:07:27;;;;;;;;;;;;;;;;;;4991951;28;19928;-66
2022/02/24 06:09:53;;;;;;;;;;;;;;;;;;4989370;28;19921;-66
2022/02/24 06:12:18;;;;;;;;;;;;;;;;;;4990058;28;20025;-66
2022/02/24 06:14:44;;;;;;;;;;;;;;;;;;4989169;28;19925;-66
2022/02/24 06:17:09;;;;;;;;;;;;;;;;;;4991588;28;19910;-66
2022/02/24 06:19:34;;;;;;;;;;;;;;;;;;4993758;28;19921;-66
2022/02/24 06:21:59;;;;;;;;;;;;;;;;;;4991733;28;19918;-66
2022/02/24 06:24:25;;;;;;;;;;;;;;;;;;4999079;28;19922;-66
2022/02/24 06:26:50;;;;;;;;;;;;;;;;;;4992794;28;20586;-66
2022/02/24 06:29:15;;;;;;;;;;;;;;;;;;4994984;28;20298;-66
2022/02/24 06:31:40;;;;;;;;;;;;;;;;;;4996487;28;19917;-66
2022/02/24 06:34:06;;;;;;;;;;;;;;;;;;5000977;28;20006;-66
2022/02/24 06:36:31;;;;;;;;;;;;;;;;;;4998174;28;19914;-60
2022/02/24 06:38:57;;;;;;;;;;;;;;;;;;4994259;28;19922;-61
2022/02/24 06:41:22;;;;;;;;;;;;;;;;;;4996499;28;20041;-61
2022/02/24 06:43:48;;;;;;;;;;;;;;;;;;5000048;28;20642;-60
2022/02/24 06:46:13;;;;;;;;;;;;;;;;;;5002690;28;20000;-61
2022/02/24 06:48:39;;;;;;;;;;;;;;;;;;4997732;28;19940;-60
2022/02/24 06:51:04;;;;;;;;;;;;;;;;;;4997697;28;19987;-60
2022/02/24 06:53:29;;;;;;;;;;;;;;;;;;4999159;28;20057;-62
2022/02/24 06:55:54;;;;;;;;;;;;;;;;;;4996778;28;19997;-60
2022/02/24 06:58:20;;;;;;;;;;;;;;;;;;4995304;28;19934;-59
2022/02/24 07:00:45;;;;;;;;;;;;;;;;;;4992380;28;19921;-61
2022/02/24 07:03:10;;;;;;;;;;;;;;;;;;4997486;28;19922;-59
2022/02/24 07:05:35;;;;;;;;;;;;;;;;;;4996951;28;19971;-63
2022/02/24 07:08:02;;;;;;;;;;;;;;;;;;4996807;28;19924;-60
2022/02/24 07:10:27;;;;;;;;;;;;;;;;;;4994766;28;19972;-60
2022/02/24 07:12:52;;;;;;;;;;;;;;;;;;4999155;28;19930;-59
2022/02/24 07:15:17;;;;;;;;;;;;;;;;;;4999999;28;19960;-60
2022/02/24 07:17:43;;;;;;;;;;;;;;;;;;4996704;28;20005;-61
2022/02/24 07:20:08;;;;;;;;;;;;;;;;;;4998337;28;19983;-61
2022/02/24 07:22:33;;;;;;;;;;;;;;;;;;4994067;28;19967;-62
2022/02/24 07:24:58;;;;;;;;;;;;;;;;;;4995833;28;21376;-60
2022/02/24 07:27:24;;;;;;;;;;;;;;;;;;4996719;28;20346;-63
2022/02/24 07:29:49;;;;;;;;;;;;;;;;;;4995586;28;19914;-63
2022/02/24 07:32:14;;;;;;;;;;;;;;;;;;4998090;28;19928;-63
2022/02/24 07:34:39;;;;;;;;;;;;;;;;;;4994015;28;19918;-62
2022/02/24 07:37:04;;;;;;;;;;;;;;;;;;4994955;28;19922;-62
2022/02/24 07:39:30;;;;;;;;;;;;;;;;;;4996609;28;19918;-61
2022/02/24 07:41:55;;;;;;;;;;;;;;;;;;4994924;28;20043;-61
2022/02/24 07:44:21;;;;;;;;;;;;;;;;;;4993870;28;20370;-61
2022/02/24 07:46:46;;;;;;;;;;;;;;;;;;4995366;28;19913;-61
2022/02/24 07:49:11;;;;;;;;;;;;;;;;;;4996291;28;19922;-61
2022/02/24 07:51:36;;;;;;;;;;;;;;;;;;4995886;28;19918;-62
2022/02/24 07:54:02;;;;;;;;;;;;;;;;;;4997698;28;19961;-61
2022/02/24 07:56:27;;;;;;;;;;;;;;;;;;4993754;28;19921;-62
2022/02/24 07:58:52;;;;;;;;;;;;;;;;;;4997751;28;19918;-61
2022/02/24 08:01:21;;;;;;;;;;;;;;;;;;4999780;28;19926;-61
2022/02/24 08:03:46;;;;;;;;;;;;;;;;;;4996665;28;20502;-61
2022/02/24 08:06:11;;;;;;;;;;;;;;;;;;4994195;28;20358;-61
2022/02/24 08:08:36;;;;;;;;;;;;;;;;;;4997475;28;20007;-61
2022/02/24 08:11:02;;;;;;;;;;;;;;;;;;4995147;28;20024;-61
2022/02/24 08:13:27;;;;;;;;;;;;;;;;;;4993867;28;19921;-61
2022/02/24 08:15:52;;;;;;;;;;;;;;;;;;4995895;28;20008;-63
2022/02/24 08:18:17;;;;;;;;;;;;;;;;;;5000469;28;20371;-61
2022/02/24 08:20:42;;;;;;;;;;;;;;;;;;4995414;28;19917;-60
2022/02/24 08:23:10;;;;;;;;;;;;;;;;;;4995221;28;19917;-60
2022/02/24 08:25:35;;;;;;;;;;;;;;;;;;5004889;28;19917;-61
2022/02/24 08:28:00;;;;;;;;;;;;;;;;;;4995125;28;19918;-62
2022/02/24 08:30:25;;;;;;;;;;;;;;;;;;4995758;28;20651;-63
2022/02/24 08:32:51;;;;;;;;;;;;;;;;;;4994043;28;20402;-62
2022/02/24 08:35:16;;;;;;;;;;;;;;;;;;4995379;28;19924;-61
2022/02/24 08:37:44;;;;;;;;;;;;;;;;;;4998604;28;19913;-61
2022/02/24 08:40:09;;;;;;;;;;;;;;;;;;4995294;28;19914;-62
2022/02/24 08:42:34;;;;;;;;;;;;;;;;;;4992306;28;19914;-60
2022/02/24 08:44:59;;;;;;;;;;;;;;;;;;4995842;28;20766;-63
2022/02/24 08:47:25;;;;;;;;;;;;;;;;;;4995987;28;20354;-62
2022/02/24 08:49:51;;;;;;;;;;;;;;;;;;4994192;28;19953;-62
2022/02/24 08:52:16;;;;;;;;;;;;;;;;;;4997219;28;20016;-62
2022/02/24 08:54:41;;;;;;;;;;;;;;;;;;4995182;28;20028;-63
2022/02/24 08:57:07;;;;;;;;;;;;;;;;;;4993031;28;19914;-61
2022/02/24 08:59:32;;;;;;;;;;;;;;;;;;4994555;28;20453;-61
2022/02/24 09:01:57;;;;;;;;;;;;;;;;;;4995227;28;19928;-62
2022/02/24 09:04:22;;;;;;;;;;;;;;;;;;4995303;28;20326;-61
2022/02/24 09:06:48;;;;;;;;;;;;;;;;;;4995588;28;19964;-61
2022/02/24 09:09:13;;;;;;;;;;;;;;;;;;4993877;28;19967;-61
2022/02/24 09:11:38;;;;;;;;;;;;;;;;;;4992683;28;20495;-60
2022/02/24 09:14:03;;;;;;;;;;;;;;;;;;4995710;28;20461;-62
2022/02/24 09:16:28;;;;;;;;;;;;;;;;;;4994579;28;19921;-61
2022/02/24 09:18:54;;;;;;;;;;;;;;;;;;4993032;28;19914;-61
2022/02/24 09:21:19;;;;;;;;;;;;;;;;;;4998152;28;19914;-62
2022/02/24 09:23:44;;;;;;;;;;;;;;;;;;4996922;28;19936;-61
2022/02/24 09:26:09;;;;;;;;;;;;;;;;;;4994318;28;20320;-62
2022/02/24 09:28:34;;;;;;;;;;;;;;;;;;4992217;28;19914;-61
2022/02/24 09:31:00;;;;;;;;;;;;;;;;;;4992082;28;20392;-61
2022/02/24 09:33:26;;;;;;;;;;;;;;;;;;4991776;28;20386;-62
2022/02/24 09:35:52;;;;;;;;;;;;;;;;;;4993560;28;19921;-62
2022/02/24 09:38:17;;;;;;;;;;;;;;;;;;4995967;28;19922;-62
2022/02/24 09:40:45;;;;;;;;;;;;;;;;;;4992191;28;19921;-62
2022/02/24 09:43:10;;;;;;;;;;;;;;;;;;4995048;28;20370;-63
2022/02/24 09:45:36;;;;;;;;;;;;;;;;;;4991783;28;19921;-61
2022/02/24 09:48:01;;;;;;;;;;;;;;;;;;4998014;28;20012;-61
2022/02/24 09:50:27;;;;;;;;;;;;;;;;;;4993784;28;19967;-60
2022/02/24 09:52:52;;;;;;;;;;;;;;;;;;4996036;28;20393;-60
2022/02/24 09:55:17;;;;;;;;;;;;;;;;;;4994933;28;19926;-62
2022/02/24 09:57:43;;;;;;;;;;;;;;;;;;4992593;28;19936;-60
2022/02/24 10:00:08;;;;;;;;;;;;;;;;;;4992089;28;20664;-62
2022/02/24 10:02:33;;;;;;;;;;;;;;;;;;4995303;28;19921;-61
2022/02/24 10:04:58;;;;;;;;;;;;;;;;;;4993243;28;19917;-60
2022/02/24 10:07:24;;;;;;;;;;;;;;;;;;4993031;28;19917;-61
2022/02/24 10:09:49;;;;;;;;;;;;;;;;;;4995099;28;19996;-61
2022/02/24 10:12:15;;;;;;;;;;;;;;;;;;4989993;28;19991;-60
2022/02/24 10:14:40;;;;;;;;;;;;;;;;;;4994043;28;19925;-62
2022/02/24 10:17:05;;;;;;;;;;;;;;;;;;4995161;28;20619;-60
2022/02/24 10:19:31;;;;;;;;;;;;;;;;;;4992154;28;19914;-60
2022/02/24 10:21:56;;;;;;;;;;;;;;;;;;4991978;28;19918;-62
2022/02/24 10:24:21;;;;;;;;;;;;;;;;;;4992425;28;19916;-61
2022/02/24 10:26:46;;;;;;;;;;;;;;;;;;4991414;28;20028;-62
2022/02/24 10:29:12;;;;;;;;;;;;;;;;;;4992161;28;19913;-60
2022/02/24 10:31:37;;;;;;;;;;;;;;;;;;4992295;28;19928;-62
2022/02/24 10:34:02;;;;;;;;;;;;;;;;;;4992417;28;19922;-61
2022/02/24 10:36:27;;;;;;;;;;;;;;;;;;4992423;28;19917;-60
2022/02/24 10:38:52;;;;;;;;;;;;;;;;;;4993580;28;19914;-62
2022/02/24 10:41:18;;;;;;;;;;;;;;;;;;4993419;28;19917;-61
2022/02/24 10:43:44;;;;;;;;;;;;;;;;;;4991687;28;20024;-60
2022/02/24 10:46:09;;;;;;;;;;;;;;;;;;4993472;28;19924;-61
2022/02/24 10:48:35;;;;;;;;;;;;;;;;;;4991227;28;19917;-61
2022/02/24 10:51:01;;;;;;;;;;;;;;;;;;4994082;28;19922;-60
2022/02/24 10:53:26;;;;;;;;;;;;;;;;;;4994439;28;19968;-61
2022/02/24 10:55:52;;;;;;;;;;;;;;;;;;4991817;28;19917;-61
2022/02/24 10:58:17;;;;;;;;;;;;;;;;;;4993981;28;20139;-62
2022/02/24 11:00:42;;;;;;;;;;;;;;;;;;4994912;28;20004;-61
2022/02/24 11:03:08;;;;;;;;;;;;;;;;;;4987394;28;19922;-60
2022/02/24 11:05:34;;;;;;;;;;;;;;;;;;4989820;28;19918;-60
2022/02/24 11:07:59;;;;;;;;;;;;;;;;;;4991066;28;19964;-60
2022/02/24 11:10:24;;;;;;;;;;;;;;;;;;4993161;28;19915;-60
2022/02/24 11:12:49;;;;;;;;;;;;;;;;;;4976286;28;19921;-62
2022/02/24 11:15:15;;;;;;;;;;;;;;;;;;4996350;28;19949;-62
2022/02/24 11:17:40;;;;;;;;;;;;;;;;;;4993785;28;19914;-61
2022/02/24 11:20:05;;;;;;;;;;;;;;;;;;4995753;28;19938;-61
2022/02/24 11:22:30;;;;;;;;;;;;;;;;;;5003300;28;19918;-60
2022/02/24 11:24:55;;;;;;;;;;;;;;;;;;4994120;28;19913;-62
2022/02/24 11:27:21;;;;;;;;;;;;;;;;;;4995361;28;19917;-60
2022/02/24 11:29:46;;;;;;;;;;;;;;;;;;4997865;28;19918;-63
2022/02/24 11:32:11;;;;;;;;;;;;;;;;;;4996839;28;19918;-60
2022/02/24 11:34:36;;;;;;;;;;;;;;;;;;4993795;28;19933;-61
2022/02/24 11:37:02;;;;;;;;;;;;;;;;;;4998606;28;19917;-60
2022/02/24 11:39:27;;;;;;;;;;;;;;;;;;4997274;28;19917;-60
2022/02/24 11:41:52;;;;;;;;;;;;;;;;;;4992483;28;19971;-62
2022/02/24 11:44:17;;;;;;;;;;;;;;;;;;4996088;28;19928;-60
2022/02/24 11:46:42;;;;;;;;;;;;;;;;;;4995851;28;19917;-62
2022/02/24 11:49:08;;;;;;;;;;;;;;;;;;4995880;28;19975;-60
2022/02/24 11:51:33;;;;;;;;;;;;;;;;;;4997001;28;20354;-60
2022/02/24 11:54:00;;;;;;;;;;;;;;;;;;4993768;28;19929;-61
2022/02/24 11:56:26;;;;;;;;;;;;;;;;;;4996671;28;20358;-60
2022/02/24 11:58:51;;;;;;;;;;;;;;;;;;4996025;28;19920;-60
2022/02/24 12:01:16;;;;;;;;;;;;;;;;;;4995622;28;19929;-61
2022/02/24 12:03:41;;;;;;;;;;;;;;;;;;4980708;28;19925;-61
2022/02/24 12:06:07;;;;;;;;;;;;;;;;;;4995120;28;19953;-60
2022/02/24 12:08:32;;;;;;;;;;;;;;;;;;4993803;28;20400;-60
2022/02/24 12:10:57;;;;;;;;;;;;;;;;;;4995436;28;19918;-61
2022/02/24 12:13:25;;;;;;;;;;;;;;;;;;4994380;28;19918;-60
2022/02/24 12:15:51;;;;;;;;;;;;;;;;;;4994663;28;19921;-61
2022/02/24 12:18:16;;;;;;;;;;;;;;;;;;4993798;28;19918;-60
2022/02/24 12:20:41;;;;;;;;;;;;;;;;;;4996151;28;19921;-61
2022/02/24 12:23:06;;;;;;;;;;;;;;;;;;4994163;28;19920;-61
2022/02/24 12:25:32;;;;;;;;;;;;;;;;;;4996801;28;19918;-61
2022/02/24 12:27:57;;;;;;;;;;;;;;;;;;4993046;28;19918;-62
2022/02/24 12:30:24;;;;;;;;;;;;;;;;;;4992793;28;19914;-61
2022/02/24 12:32:49;;;;;;;;;;;;;;;;;;4995682;28;19928;-61
2022/02/24 12:35:14;;;;;;;;;;;;;;;;;;4995165;28;20016;-62
2022/02/24 12:37:39;;;;;;;;;;;;;;;;;;4993913;28;19919;-63
2022/02/24 12:40:05;;;;;;;;;;;;;;;;;;4997271;28;20012;-61
2022/02/24 12:42:30;;;;;;;;;;;;;;;;;;4995165;28;19924;-61
2022/02/24 12:44:55;;;;;;;;;;;;;;;;;;4994877;28;20004;-61
2022/02/24 12:47:21;;;;;;;;;;;;;;;;;;4995019;28;20011;-62
2022/02/24 12:49:47;;;;;;;;;;;;;;;;;;4995703;28;19964;-62
2022/02/24 12:52:12;;;;;;;;;;;;;;;;;;4994827;28;19924;-61
2022/02/24 12:54:38;;;;;;;;;;;;;;;;;;4995595;28;19926;-61
2022/02/24 12:57:03;;;;;;;;;;;;;;;;;;4992145;28;19917;-62
2022/02/24 12:59:28;;;;;;;;;;;;;;;;;;4990236;28;19961;-61
2022/02/24 13:01:54;;;;;;;;;;;;;;;;;;4991607;28;19929;-62
2022/02/24 13:04:20;;;;;;;;;;;;;;;;;;4994570;28;19977;-63
2022/02/24 13:06:46;;;;;;;;;;;;;;;;;;4993397;28;19918;-62
2022/02/24 13:11:55;;;;;;;;;;;;;;;;;;5002003;28;19921;-61
2022/02/24 13:14:21;;;;;;;;;;;;;;;;;;4994702;28;19922;-60
2022/02/24 13:16:46;;;;;;;;;;;;;;;;;;4993757;28;19964;-62
2022/02/24 13:19:11;;;;;;;;;;;;;;;;;;4995715;28;19913;-64
2022/02/24 13:21:36;;;;;;;;;;;;;;;;;;4993541;28;20012;-61
2022/02/24 13:24:02;;;;;;;;;;;;;;;;;;4995448;28;19983;-62
2022/02/24 13:26:28;;;;;;;;;;;;;;;;;;4990587;28;19914;-63
2022/02/24 13:28:53;;;;;;;;;;;;;;;;;;4993097;28;19964;-62
2022/02/24 13:31:18;;;;;;;;;;;;;;;;;;4993835;28;19921;-61
2022/02/24 13:33:43;;;;;;;;;;;;;;;;;;4993513;28;20005;-62
2022/02/24 13:36:09;;;;;;;;;;;;;;;;;;4992437;28;19918;-61
2022/02/24 13:38:35;;;;;;;;;;;;;;;;;;4994425;28;19976;-61
2022/02/24 13:41:00;;;;;;;;;;;;;;;;;;4994086;28;19924;-61
2022/02/24 13:43:26;;;;;;;;;;;;;;;;;;4991312;28;19918;-60
2022/02/24 13:45:51;;;;;;;;;;;;;;;;;;4994198;28;20465;-60
2022/02/24 13:48:16;;;;;;;;;;;;;;;;;;4994324;28;19918;-59
2022/02/24 13:50:42;;;;;;;;;;;;;;;;;;4995029;28;20020;-60
2022/02/24 13:53:07;;;;;;;;;;;;;;;;;;4992236;28;20285;-59
2022/02/24 13:55:33;;;;;;;;;;;;;;;;;;4991872;28;19918;-61
2022/02/24 13:57:59;;;;;;;;;;;;;;;;;;4992616;28;20024;-61
2022/02/24 14:00:25;;;;;;;;;;;;;;;;;;4995053;28;19964;-61
2022/02/24 14:02:50;;;;;;;;;;;;;;;;;;4992343;28;19913;-60
2022/02/24 14:05:15;;;;;;;;;;;;;;;;;;4991117;28;19914;-61
2022/02/24 14:07:41;;;;;;;;;;;;;;;;;;4992604;28;19963;-60
2022/02/24 14:10:06;;;;;;;;;;;;;;;;;;4991561;28;19914;-61
2022/02/24 14:12:31;;;;;;;;;;;;;;;;;;4994152;28;19975;-61
2022/02/24 14:14:57;;;;;;;;;;;;;;;;;;4992587;28;20044;-60
2022/02/24 14:17:22;;;;;;;;;;;;;;;;;;4997022;28;19913;-61
2022/02/24 14:19:47;;;;;;;;;;;;;;;;;;4995495;28;19914;-62
2022/02/24 14:22:12;;;;;;;;;;;;;;;;;;4996586;28;19913;-59
2022/02/24 14:24:38;;;;;;;;;;;;;;;;;;4994633;28;19914;-59
2022/02/24 14:27:03;;;;;;;;;;;;;;;;;;4992077;28;19917;-59
2022/02/24 14:29:28;;;;;;;;;;;;;;;;;;4973794;28;19922;-60
2022/02/24 14:31:53;;;;;;;;;;;;;;;;;;4995064;28;19917;-57
2022/02/24 14:34:18;;;;;;;;;;;;;;;;;;4993311;28;19922;-59
2022/02/24 14:36:44;;;;;;;;;;;;;;;;;;4993285;28;19917;-58
2022/02/24 14:39:09;;;;;;;;;;;;;;;;;;5000565;28;19925;-58
2022/02/24 14:41:34;;;;;;;;;;;;;;;;;;5002067;28;19956;-58
2022/02/24 14:43:59;;;;;;;;;;;;;;;;;;4999386;28;19956;-57
2022/02/24 14:46:25;;;;;;;;;;;;;;;;;;4997546;28;20036;-59
2022/02/24 14:48:50;;;;;;;;;;;;;;;;;;5001736;28;19918;-58
2022/02/24 14:51:15;;;;;;;;;;;;;;;;;;4998592;28;20012;-58
2022/02/24 14:53:40;;;;;;;;;;;;;;;;;;4996296;28;20009;-57
2022/02/24 14:56:06;;;;;;;;;;;;;;;;;;4999194;28;20322;-57
2022/02/24 14:58:31;;;;;;;;;;;;;;;;;;4998316;28;20377;-58
2022/02/24 15:00:57;;;;;;;;;;;;;;;;;;4999162;28;19984;-55
2022/02/24 15:03:22;;;;;;;;;;;;;;;;;;4998682;28;19922;-54
2022/02/24 15:05:48;;;;;;;;;;;;;;;;;;4995114;28;19918;-57
2022/02/24 15:08:14;;;;;;;;;;;;;;;;;;4999023;28;19914;-58
2022/02/24 15:10:41;;;;;;;;;;;;;;;;;;4997822;28;20568;-60
2022/02/24 15:13:09;;;;;;;;;;;;;;;;;;4995924;28;19930;-59
2022/02/24 15:15:35;;;;;;;;;;;;;;;;;;4997774;28;19925;-57
2022/02/24 15:18:02;;;;;;;;;;;;;;;;;;5001334;28;19921;-58
2022/02/24 15:20:27;;;;;;;;;;;;;;;;;;4993688;28;20290;-59
2022/02/24 15:22:53;;;;;;;;;;;;;;;;;;4998196;28;19941;-57
2022/02/24 15:25:18;;;;;;;;;;;;;;;;;;4998822;28;19922;-57
2022/02/24 15:27:44;;;;;;;;;;;;;;;;;;4997007;28;19914;-58
2022/02/24 15:30:09;;;;;;;;;;;;;;;;;;4998686;28;19909;-58
2022/02/24 15:32:35;;;;;;;;;;;;;;;;;;4998349;28;19917;-58
2022/02/24 15:35:00;;;;;;;;;;;;;;;;;;4990297;28;19918;-59
2022/02/24 15:37:25;;;;;;;;;;;;;;;;;;5001553;28;19914;-58
2022/02/24 15:39:51;;;;;;;;;;;;;;;;;;4997740;28;19917;-58
2022/02/24 15:42:16;;;;;;;;;;;;;;;;;;4992055;28;19933;-56
2022/02/24 15:44:41;;;;;;;;;;;;;;;;;;4995331;28;20795;-59
2022/02/24 15:47:06;;;;;;;;;;;;;;;;;;4992997;28;20424;-58
2022/02/24 15:49:31;;;;;;;;;;;;;;;;;;4994118;28;19917;-57
2022/02/24 15:51:57;;;;;;;;;;;;;;;;;;4997341;28;19921;-58
2022/02/24 15:54:22;;;;;;;;;;;;;;;;;;4996750;28;19928;-58
2022/02/24 15:56:47;;;;;;;;;;;;;;;;;;4987108;28;19916;-58
2022/02/24 15:59:12;;;;;;;;;;;;;;;;;;4997170;28;19914;-59
2022/02/24 16:01:38;;;;;;;;;;;;;;;;;;4996889;28;19918;-58
2022/02/24 16:04:03;;;;;;;;;;;;;;;;;;4996835;28;20370;-60
2022/02/24 16:06:28;;;;;;;;;;;;;;;;;;5002020;28;20818;-58
2022/02/24 16:08:53;;;;;;;;;;;;;;;;;;4986521;28;19928;-58
2022/02/24 16:11:20;;;;;;;;;;;;;;;;;;4978476;28;19952;-59
2022/02/24 16:13:45;;;;;;;;;;;;;;;;;;4995211;28;19936;-58
2022/02/24 16:16:10;;;;;;;;;;;;;;;;;;4999345;28;19917;-58
2022/02/24 16:18:36;;;;;;;;;;;;;;;;;;4997800;28;19923;-60
2022/02/24 16:21:01;;;;;;;;;;;;;;;;;;4997839;28;19917;-60
2022/02/24 16:23:26;;;;;;;;;;;;;;;;;;4997586;28;19913;-58
2022/02/24 16:25:52;;;;;;;;;;;;;;;;;;4995033;28;19914;-59
2022/02/24 16:28:17;;;;;;;;;;;;;;;;;;4994864;28;19920;-58
2022/02/24 16:30:42;;;;;;;;;;;;;;;;;;4997511;28;20290;-57
2022/02/24 16:33:09;;;;;;;;;;;;;;;;;;4996046;28;20016;-58
2022/02/24 16:35:34;;;;;;;;;;;;;;;;;;4995372;28;19917;-57